Track Крылов Дмитрий

Time Latitude Longitude Accuracy (66% radius in meters) Altitude (meters) Speed (km/hour) Bearing (degrees) Battery (%) GPS flag
11:17:25 60.370864 29.556221 12 81 0 214.44026184082 55 1 delete
11:17:15 60.370883 29.556180 12 84 1.8707439899445 183.62910461426 55 1 delete
11:17:14 60.370893 29.556175 12 90 2 209.14936828613 55 1 delete
11:17:04 60.370920 29.556247 12 86 0 238.99655151367 55 1 delete
11:17:01 60.370931 29.556260 12 84 0.1078924909234 233.62057495117 55 1 delete
11:16:55 60.370954 29.556343 8 81 0 239.32861328125 55 1 delete
11:16:53 60.370962 29.556364 12 80 0 145.66310119629 55 1 delete
11:16:41 60.370972 29.556434 8 75 0 145.66310119629 55 1 delete
11:16:37 60.370984 29.556417 6 80 1.164297580719 134.90065002441 55 1 delete
11:16:33 60.371012 29.556339 8 80 1.2078032493591 106.44974517822 55 1 delete
11:16:30 60.371022 29.556249 6 77 1.2375736236572 97.456581115723 55 1 delete
11:16:25 60.371050 29.556151 6 76 1.3073776960373 104.4849319458 55 1 delete
11:16:20 60.371046 29.556055 6 76 1.3195126056671 76.575164794922 55 1 delete
11:16:15 60.371045 29.555954 6 69 1.3878197669983 95.693412780762 55 1 delete
11:16:11 60.371047 29.555841 6 71 1.3721259832382 84.418296813965 55 1 delete
11:16:08 60.371037 29.555748 6 71 1.2843788862228 81.151100158691 55 1 delete
11:16:04 60.371021 29.555662 8 70 1.1762783527374 84.92366027832 55 1 delete
11:16:01 60.371011 29.555560 6 73 1.0099798440933 82.494476318359 55 1 delete
11:15:57 60.371000 29.555454 6 70 0.92830747365952 38.205028533936 55 1 delete
11:15:54 60.370967 29.555371 6 69 0.83527225255966 48.912750244141 55 1 delete
11:15:51 60.370951 29.555260 8 76 0.68867826461792 66.437873840332 55 1 delete
11:15:49 60.370934 29.555102 8 77 0.56148314476013 79.589897155762 55 1 delete
11:15:48 60.370936 29.554970 24 78 0.46623238921165 98.565147399902 55 1 delete
11:15:47 60.370948 29.554822 8 85 0.37377181649208 90.842010498047 55 1 delete
11:15:46 60.370961 29.554708 12 88 0.28397929668427 255.4141998291 55 1 delete
11:15:44 60.371005 29.554632 16 83 0.12876605987549 147.35412597656 55 1 delete
11:15:36 60.371069 29.554532 12 79 0 72.592849731445 55 1 delete
11:15:25 60.371062 29.554524 16 85 0 110.59999847412 55 1 delete
11:15:20 60.371052 29.554527 12 83 0 222.92445373535 55 1 delete
11:15:15 60.371004 29.554567 12 84 0 222.92445373535 55 1 delete
11:15:07 60.371004 29.554567 8 82 0 222.92445373535 55 1 delete
11:15:04 60.371001 29.554568 12 82 0 222.92445373535 55 1 delete
11:14:53 60.371001 29.554568 16 85 0 222.92445373535 55 1 delete
11:14:43 60.371001 29.554568 12 79 0 222.92445373535 55 1 delete
11:14:32 60.370993 29.554580 16 76 0 222.92445373535 55 1 delete
11:14:25 60.370960 29.554602 12 81 0 222.92445373535 55 1 delete
11:14:24 60.370915 29.554651 12 79 0 222.92445373535 55 1 delete
11:14:21 60.370897 29.554671 12 81 0 222.92445373535 55 1 delete
11:14:11 60.370880 29.554677 12 80 0 222.92445373535 55 1 delete
11:14:00 60.370864 29.554672 16 68 0 222.92445373535 55 1 delete
11:13:56 60.370867 29.554678 16 80 0.3512008190155 235.56700134277 55 1 delete
11:13:53 60.370912 29.554666 12 73 0.11018469929695 196.58930969238 55 1 delete
11:13:49 60.370933 29.554675 16 72 0 161.08967590332 55 1 delete
11:13:47 60.370960 29.554653 16 72 0.1273790448904 161.08967590332 55 1 delete
11:13:39 60.371012 29.554582 24 65 0 28.601514816284 55 1 delete
11:13:28 60.371029 29.554572 16 62 0 31.952825546265 55 1 delete
11:13:17 60.371013 29.554588 16 67 0 331.55111694336 55 1 delete
11:13:14 60.371013 29.554588 12 73 0 331.55111694336 55 1 delete
11:13:06 60.370961 29.554641 24 77 0 195.42948913574 55 1 delete
11:13:02 60.370958 29.554652 16 80 0 195.42948913574 55 1 delete